createdAt,value
2018-02-24T00:00:28.640Z,13.77
2018-02-24T00:02:56.920Z,13.73
2018-02-24T00:05:25.224Z,13.27
2018-02-24T00:07:53.500Z,12.40
2018-02-24T00:10:21.820Z,13.43
2018-02-24T00:12:50.128Z,13.70
2018-02-24T00:15:18.377Z,12.20
2018-02-24T00:17:46.684Z,13.82
2018-02-24T00:20:14.960Z,13.37
2018-02-24T00:22:43.570Z,14.33
2018-02-24T00:25:11.835Z,12.20
2018-02-24T00:27:40.146Z,13.47
2018-02-24T00:30:08.414Z,13.30
2018-02-24T00:32:36.744Z,10.95
2018-02-24T00:35:05.078Z,10.10
2018-02-24T00:37:33.351Z,13.30
2018-02-24T00:40:01.700Z,13.00
2018-02-24T00:42:29.993Z,15.17
2018-02-24T00:44:58.336Z,12.60
2018-02-24T00:47:26.620Z,13.35
2018-02-24T00:49:54.896Z,13.80
2018-02-24T00:52:23.175Z,12.67
2018-02-24T00:54:51.519Z,14.00
2018-02-24T00:57:19.773Z,13.00
2018-02-24T00:59:48.128Z,13.13
2018-02-24T01:02:16.360Z,13.07
2018-02-24T01:04:44.660Z,12.17
2018-02-24T01:07:13.019Z,12.40
2018-02-24T01:09:41.293Z,13.53
2018-02-24T01:12:09.595Z,11.85
2018-02-24T01:14:37.871Z,13.97
2018-02-24T01:17:06.165Z,12.70
2018-02-24T01:19:34.448Z,13.73
2018-02-24T01:22:02.863Z,12.60
2018-02-24T01:24:31.111Z,13.25
2018-02-24T01:26:59.400Z,13.10
2018-02-24T01:29:27.659Z,13.20
2018-02-24T01:31:55.967Z,12.87
2018-02-24T01:34:24.293Z,12.20
2018-02-24T01:36:52.644Z,10.63
2018-02-24T01:39:20.931Z,12.37
2018-02-24T01:41:49.241Z,12.13
2018-02-24T01:44:17.508Z,12.90
2018-02-24T01:46:45.799Z,12.07
2018-02-24T01:49:14.117Z,12.40
2018-02-24T01:51:42.422Z,12.70
2018-02-24T01:54:10.720Z,12.47
2018-02-24T01:56:38.980Z,11.10
2018-02-24T01:59:07.340Z,11.93
2018-02-24T02:01:35.633Z,12.88
2018-02-24T02:04:04.377Z,12.37
2018-02-24T02:06:32.649Z,10.67
2018-02-24T02:09:00.995Z,12.13
2018-02-24T02:11:29.292Z,13.60
2018-02-24T02:13:57.586Z,11.30
2018-02-24T02:16:25.860Z,10.63
2018-02-24T02:18:54.205Z,11.30
2018-02-24T02:21:22.512Z,13.55
2018-02-24T02:23:50.792Z,12.57
2018-02-24T02:26:19.115Z,11.93
2018-02-24T02:28:47.426Z,15.27
2018-02-24T02:31:15.717Z,12.10
2018-02-24T02:33:44.003Z,12.00
2018-02-24T02:36:12.301Z,11.20
2018-02-24T02:38:40.587Z,12.30
2018-02-24T02:41:08.885Z,12.77
2018-02-24T02:43:37.220Z,11.45
2018-02-24T02:46:05.560Z,12.80
2018-02-24T02:48:33.898Z,12.07
2018-02-24T02:51:02.173Z,11.13
2018-02-24T02:53:30.500Z,13.13
2018-02-24T02:55:58.792Z,11.13
2018-02-24T02:58:27.089Z,12.10
2018-02-24T03:00:55.357Z,13.47
2018-02-24T03:03:23.663Z,11.97
2018-02-24T03:05:52.097Z,11.30
2018-02-24T03:08:20.399Z,11.87
2018-02-24T03:10:48.667Z,13.30
2018-02-24T03:13:16.996Z,12.03
2018-02-24T03:15:45.269Z,12.00
2018-02-24T03:18:13.575Z,11.90
2018-02-24T03:20:41.833Z,11.93
2018-02-24T03:23:10.134Z,12.65
2018-02-24T03:25:38.425Z,12.80
2018-02-24T03:28:06.736Z,11.60
2018-02-24T03:30:35.013Z,12.80
2018-02-24T03:33:03.307Z,12.40
2018-02-24T03:35:31.644Z,11.52
2018-02-24T03:37:59.911Z,10.90
2018-02-24T03:40:28.215Z,11.60
2018-02-24T03:42:56.486Z,12.40
2018-02-24T03:45:24.799Z,11.80
2018-02-24T03:47:53.100Z,12.40
2018-02-24T03:50:21.413Z,12.10
2018-02-24T03:52:49.680Z,12.23
2018-02-24T03:55:17.993Z,13.13
2018-02-24T03:57:47.297Z,12.63
2018-02-24T04:00:15.596Z,13.00
2018-02-24T04:02:43.912Z,12.98
2018-02-24T04:05:12.225Z,12.73
2018-02-24T04:07:40.526Z,12.33
2018-02-24T04:10:08.803Z,12.93
2018-02-24T04:12:37.133Z,12.63
2018-02-24T04:15:05.461Z,12.20
2018-02-24T04:17:33.820Z,12.20
2018-02-24T04:20:02.138Z,13.27
2018-02-24T04:22:30.433Z,13.77
2018-02-24T04:24:58.743Z,12.27
2018-02-24T04:27:27.357Z,13.03
2018-02-24T04:29:55.647Z,12.93
2018-02-24T04:32:23.942Z,11.90
2018-02-24T04:34:52.232Z,11.80
2018-02-24T04:37:20.508Z,11.43
2018-02-24T04:39:48.829Z,12.20
2018-02-24T04:42:17.120Z,13.07
2018-02-24T04:44:45.419Z,12.33
2018-02-24T04:47:13.707Z,12.17
2018-02-24T04:49:41.987Z,13.07
2018-02-24T04:52:10.263Z,12.00
2018-02-24T04:54:38.572Z,12.80
2018-02-24T04:57:06.845Z,12.48
2018-02-24T04:59:35.119Z,11.17
2018-02-24T05:02:04.256Z,12.50
2018-02-24T05:04:32.549Z,12.63
2018-02-24T05:07:00.873Z,12.30
2018-02-24T05:09:29.137Z,11.50
2018-02-24T05:11:57.440Z,12.52
2018-02-24T05:14:25.712Z,11.00
2018-02-24T05:16:54.020Z,12.70
2018-02-24T05:19:22.327Z,12.63
2018-02-24T05:21:50.995Z,12.65
2018-02-24T05:24:19.267Z,12.77
2018-02-24T05:26:47.595Z,13.03
2018-02-24T05:29:15.879Z,11.03
2018-02-24T05:31:44.203Z,12.40
2018-02-24T05:34:12.503Z,10.23
2018-02-24T05:36:40.795Z,14.07
2018-02-24T05:39:09.176Z,9.27
2018-02-24T05:41:37.487Z,13.43
2018-02-24T05:44:05.798Z,15.40
2018-02-24T05:46:34.148Z,11.50
2018-02-24T05:49:02.456Z,12.73
2018-02-24T05:51:30.765Z,10.82
2018-02-24T05:53:59.071Z,13.80
2018-02-24T05:56:27.344Z,13.18
2018-02-24T05:58:55.639Z,13.33
2018-02-24T06:01:23.932Z,12.03
2018-02-24T06:03:52.215Z,13.03
2018-02-24T06:06:20.570Z,13.75
2018-02-24T06:08:48.862Z,12.90
2018-02-24T06:11:17.197Z,12.67
2018-02-24T06:13:45.493Z,13.30
2018-02-24T06:16:13.817Z,13.30
2018-02-24T06:18:42.125Z,11.73
2018-02-24T06:21:10.502Z,13.00
2018-02-24T06:23:38.779Z,12.83
2018-02-24T06:26:07.128Z,10.40
2018-02-24T06:28:35.444Z,12.40
2018-02-24T06:31:03.741Z,11.60
2018-02-24T06:33:32.061Z,12.90
2018-02-24T06:36:00.366Z,12.00
2018-02-24T06:38:28.672Z,12.03
2018-02-24T06:40:57.020Z,12.67
2018-02-24T06:43:25.324Z,13.57
2018-02-24T06:45:53.643Z,10.27
2018-02-24T06:48:21.946Z,11.90
2018-02-24T06:50:50.235Z,17.60
2018-02-24T06:53:18.540Z,13.23
2018-02-24T06:55:46.828Z,12.50
2018-02-24T06:58:15.151Z,14.02
2018-02-24T07:00:43.492Z,11.87
2018-02-24T07:03:11.730Z,13.07
2018-02-24T07:05:40.020Z,13.20
2018-02-24T07:08:08.317Z,11.57
2018-02-24T07:10:36.619Z,11.93
2018-02-24T07:13:04.928Z,12.33
2018-02-24T07:15:33.243Z,12.20
2018-02-24T07:18:02.198Z,12.50
2018-02-24T07:20:30.551Z,13.20
2018-02-24T07:22:58.832Z,13.77
2018-02-24T07:25:27.143Z,12.30
2018-02-24T07:27:55.417Z,13.17
2018-02-24T07:30:23.716Z,12.37
2018-02-24T07:32:52.083Z,12.80
2018-02-24T07:35:20.352Z,13.30
2018-02-24T07:37:48.666Z,13.37
2018-02-24T07:40:17.010Z,11.60
2018-02-24T07:42:45.320Z,11.53
2018-02-24T07:45:13.650Z,11.70
2018-02-24T07:47:41.942Z,12.57
2018-02-24T07:50:10.220Z,10.80
2018-02-24T07:52:38.544Z,12.43
2018-02-24T07:55:06.823Z,12.10
2018-02-24T07:57:35.143Z,13.07
2018-02-24T08:00:04.073Z,13.55
2018-02-24T08:02:32.920Z,13.17
2018-02-24T08:05:01.184Z,12.50
2018-02-24T08:07:29.504Z,13.93
2018-02-24T08:09:57.842Z,13.97
2018-02-24T08:12:26.155Z,12.88
2018-02-24T08:14:54.471Z,13.63
2018-02-24T08:17:22.767Z,12.45
2018-02-24T08:19:51.083Z,13.20
2018-02-24T08:22:19.381Z,10.90
2018-02-24T08:24:47.687Z,13.97
2018-02-24T08:27:16.004Z,13.40
2018-02-24T08:29:44.415Z,13.10
2018-02-24T08:32:12.721Z,13.13
2018-02-24T08:34:41.019Z,12.80
2018-02-24T08:37:09.314Z,12.02
2018-02-24T08:39:37.601Z,12.70
2018-02-24T08:42:05.912Z,14.67
2018-02-24T08:44:34.203Z,13.60
2018-02-24T08:47:02.531Z,12.07
2018-02-24T08:49:30.815Z,13.65
2018-02-24T08:51:59.088Z,10.27
2018-02-24T08:54:27.379Z,13.83
2018-02-24T08:56:55.679Z,12.87
2018-02-24T08:59:23.955Z,13.10
2018-02-24T09:01:52.262Z,13.20
2018-02-24T09:04:20.584Z,13.38
2018-02-24T09:06:48.868Z,12.37
2018-02-24T09:09:17.147Z,13.50
2018-02-24T09:11:45.440Z,12.10
2018-02-24T09:14:14.246Z,10.63
2018-02-24T09:16:42.506Z,13.33
2018-02-24T09:19:11.059Z,13.43
2018-02-24T09:21:39.538Z,10.77
2018-02-24T09:24:07.852Z,12.15
2018-02-24T09:26:36.147Z,13.20
2018-02-24T09:29:05.523Z,12.55
2018-02-24T09:31:33.848Z,13.33
2018-02-24T09:34:02.130Z,11.90
2018-02-24T09:36:30.424Z,12.20
2018-02-24T09:38:58.812Z,11.97
2018-02-24T09:41:27.489Z,13.00
2018-02-24T09:43:56.508Z,13.07
2018-02-24T09:46:24.802Z,12.80
2018-02-24T09:48:53.101Z,12.87
2018-02-24T09:51:21.404Z,11.10
2018-02-24T09:53:49.682Z,11.60
2018-02-24T09:56:18.056Z,13.70
2018-02-24T09:58:46.323Z,14.17
2018-02-24T10:01:14.635Z,12.10
2018-02-24T10:03:42.964Z,13.23
2018-02-24T10:06:11.270Z,12.13
2018-02-24T10:08:39.549Z,14.67
2018-02-24T10:11:07.864Z,10.90
2018-02-24T10:13:36.188Z,9.57
2018-02-24T10:16:04.499Z,12.70
2018-02-24T10:18:32.813Z,14.63
2018-02-24T10:21:01.134Z,12.80
2018-02-24T10:23:29.432Z,13.53
2018-02-24T10:25:57.781Z,13.20
2018-02-24T10:28:26.154Z,14.00
2018-02-24T10:30:54.387Z,13.50
2018-02-24T10:33:22.717Z,12.63
2018-02-24T10:35:51.021Z,13.43
2018-02-24T10:38:19.316Z,14.30
2018-02-24T10:40:47.633Z,12.27
2018-02-24T10:43:15.959Z,13.15
2018-02-24T10:45:44.380Z,12.60
2018-02-24T10:48:12.687Z,12.87
2018-02-24T10:50:40.970Z,12.13
2018-02-24T10:53:09.429Z,13.43
2018-02-24T10:55:37.744Z,14.77
2018-02-24T10:58:06.060Z,12.20
2018-02-24T11:00:34.348Z,13.67
2018-02-24T11:03:02.689Z,13.48
2018-02-24T11:05:30.976Z,12.50
2018-02-24T11:07:59.242Z,13.40
2018-02-24T11:10:27.536Z,13.48
2018-02-24T11:12:55.835Z,12.30
2018-02-24T11:15:24.130Z,14.07
2018-02-24T11:17:52.459Z,12.27
2018-02-24T11:20:20.765Z,13.67
2018-02-24T11:22:49.024Z,13.27
2018-02-24T11:25:17.342Z,13.60
2018-02-24T11:27:45.607Z,12.83
2018-02-24T11:30:14.655Z,10.07
2018-02-24T11:32:42.968Z,10.67
2018-02-24T11:35:11.285Z,12.00
2018-02-24T11:37:39.547Z,8.60
2018-02-24T11:40:07.870Z,11.03
2018-02-24T11:42:36.211Z,10.40
2018-02-24T11:45:04.834Z,10.75
2018-02-24T11:47:33.143Z,10.70
2018-02-24T11:50:01.632Z,9.90
2018-02-24T11:52:29.939Z,11.50
2018-02-24T11:54:58.255Z,10.75
2018-02-24T11:57:26.639Z,10.50
2018-02-24T11:59:54.904Z,9.63
2018-02-24T12:02:23.212Z,10.87
2018-02-24T12:04:51.491Z,10.67
2018-02-24T12:07:19.783Z,10.10
2018-02-24T12:09:48.086Z,8.43
2018-02-24T12:12:16.388Z,10.20
2018-02-24T12:14:44.675Z,8.07
2018-02-24T12:17:13.237Z,10.37
2018-02-24T12:19:41.518Z,10.27
2018-02-24T12:22:09.797Z,9.85
2018-02-24T12:24:38.125Z,10.33
2018-02-24T12:27:06.433Z,9.80
2018-02-24T12:29:34.675Z,10.40
2018-02-24T12:32:02.943Z,10.83
2018-02-24T12:34:31.238Z,11.07
2018-02-24T12:36:59.550Z,9.80
2018-02-24T12:39:27.823Z,9.83
2018-02-24T12:41:56.157Z,10.50
2018-02-24T12:44:24.453Z,9.70
2018-02-24T12:46:52.751Z,9.90
2018-02-24T12:49:21.016Z,9.40
2018-02-24T12:51:49.428Z,9.07
2018-02-24T12:54:17.720Z,9.40
2018-02-24T12:56:45.995Z,8.17
2018-02-24T12:59:14.315Z,8.77
2018-02-24T13:01:42.647Z,9.03
2018-02-24T13:04:10.936Z,8.70
2018-02-24T13:06:39.212Z,9.20
2018-02-24T13:09:07.510Z,8.73
2018-02-24T13:11:35.789Z,8.17
2018-02-24T13:14:05.138Z,8.52
2018-02-24T13:16:33.618Z,8.20
2018-02-24T13:19:02.098Z,8.53
2018-02-24T13:21:30.823Z,7.57
2018-02-24T13:23:59.087Z,7.60
2018-02-24T13:26:27.397Z,7.33
2018-02-24T13:28:55.696Z,7.70
2018-02-24T13:31:24.024Z,8.67
2018-02-24T13:33:52.358Z,8.50
2018-02-24T13:36:20.677Z,7.83
2018-02-24T13:38:48.947Z,6.75
2018-02-24T13:41:17.297Z,7.03
2018-02-24T13:43:45.605Z,8.03
2018-02-24T13:46:13.884Z,5.83
2018-02-24T13:48:42.821Z,7.62
2018-02-24T13:51:11.154Z,7.12
2018-02-24T13:53:39.488Z,7.30
2018-02-24T13:56:07.862Z,7.10
2018-02-24T13:58:36.440Z,8.10
2018-02-24T14:01:05.383Z,7.37
2018-02-24T14:03:33.711Z,6.43
2018-02-24T14:06:02.392Z,6.18
2018-02-24T14:08:30.712Z,6.30
2018-02-24T14:10:59.015Z,6.30
2018-02-24T14:13:27.398Z,5.95
2018-02-24T14:15:55.744Z,5.23
2018-02-24T14:18:24.102Z,4.97
2018-02-24T14:20:52.442Z,5.50
2018-02-24T14:23:20.736Z,4.80
2018-02-24T14:25:49.040Z,5.07
2018-02-24T14:28:17.302Z,4.80
2018-02-24T14:30:45.627Z,5.15
2018-02-24T14:33:13.929Z,5.43
2018-02-24T14:35:42.262Z,4.60
2018-02-24T14:38:10.538Z,5.40
2018-02-24T14:40:38.848Z,5.00
2018-02-24T14:43:07.176Z,5.40
2018-02-24T14:45:35.927Z,4.70
2018-02-24T14:48:04.259Z,4.15
2018-02-24T14:50:32.593Z,4.00
2018-02-24T14:53:00.928Z,5.73
2018-02-24T14:55:29.217Z,5.13
2018-02-24T14:57:57.986Z,3.93
2018-02-24T15:00:26.489Z,4.80
2018-02-24T15:02:54.978Z,4.93
2018-02-24T15:05:23.265Z,4.63
2018-02-24T15:07:51.511Z,4.73
2018-02-24T15:10:19.839Z,5.37
2018-02-24T15:12:48.128Z,5.17
2018-02-24T15:15:16.411Z,5.30
2018-02-24T15:17:44.667Z,4.20
2018-02-24T15:20:12.976Z,4.03
2018-02-24T15:22:41.253Z,6.10
2018-02-24T15:25:09.527Z,5.30
2018-02-24T15:27:37.862Z,5.93
2018-02-24T15:30:06.138Z,5.20
2018-02-24T15:32:34.466Z,6.37
2018-02-24T15:35:02.725Z,5.70
2018-02-24T15:37:31.012Z,6.82
2018-02-24T15:39:59.292Z,6.50
2018-02-24T15:42:28.772Z,6.13
2018-02-24T15:44:59.790Z,6.00
2018-02-24T15:47:28.165Z,6.23
2018-02-24T15:49:56.441Z,6.20
2018-02-24T15:52:24.776Z,8.23
2018-02-24T15:54:53.118Z,5.63
2018-02-24T15:57:21.384Z,4.57
2018-02-24T15:59:49.686Z,4.83
2018-02-24T16:02:17.949Z,4.78
2018-02-24T16:04:46.263Z,4.33
2018-02-24T16:07:14.565Z,5.27
2018-02-24T16:09:42.811Z,5.27
2018-02-24T16:12:11.077Z,4.90
2018-02-24T16:14:39.738Z,5.27
2018-02-24T16:17:08.048Z,5.60
2018-02-24T16:19:36.309Z,5.30
2018-02-24T16:22:06.138Z,4.87
2018-02-24T16:24:34.403Z,4.43
2018-02-24T16:27:02.724Z,5.70
2018-02-24T16:29:31.041Z,5.70
2018-02-24T16:31:59.468Z,5.90
2018-02-24T16:34:27.735Z,6.25
2018-02-24T16:36:56.014Z,6.03
2018-02-24T16:39:24.257Z,4.97
2018-02-24T16:41:52.566Z,6.43
2018-02-24T16:44:21.107Z,6.15
2018-02-24T16:46:49.395Z,5.90
2018-02-24T16:49:17.672Z,5.82
2018-02-24T16:51:45.920Z,4.50
2018-02-24T16:54:14.247Z,6.40
2018-02-24T16:56:42.497Z,5.63
2018-02-24T16:59:10.853Z,5.90
2018-02-24T17:01:39.109Z,5.73
2018-02-24T17:04:07.455Z,6.00
2018-02-24T17:06:35.753Z,6.80
2018-02-24T17:09:04.256Z,5.85
2018-02-24T17:11:33.187Z,5.10
2018-02-24T17:14:01.524Z,5.80
2018-02-24T17:16:29.801Z,6.13
2018-02-24T17:18:58.095Z,5.47
2018-02-24T17:21:26.383Z,6.30
2018-02-24T17:23:54.683Z,6.40
2018-02-24T17:26:22.965Z,6.47
2018-02-24T17:28:51.215Z,6.57
2018-02-24T17:31:19.546Z,7.50
2018-02-24T17:33:47.837Z,6.50
2018-02-24T17:36:16.228Z,6.40
2018-02-24T17:38:44.642Z,6.63
2018-02-24T17:41:13.825Z,7.60
2018-02-24T17:43:42.156Z,6.97
2018-02-24T17:46:10.421Z,6.70
2018-02-24T17:48:38.724Z,7.13
2018-02-24T17:51:07.042Z,7.25
2018-02-24T17:53:35.329Z,9.87
2018-02-24T17:56:04.219Z,7.80
2018-02-24T17:58:32.534Z,6.90
2018-02-24T18:01:00.942Z,7.23
2018-02-24T18:03:29.232Z,8.15
2018-02-24T18:05:57.508Z,7.47
2018-02-24T18:08:25.812Z,7.60
2018-02-24T18:10:54.104Z,7.07
2018-02-24T18:13:22.442Z,8.30
2018-02-24T18:15:50.729Z,7.30
2018-02-24T18:18:19.000Z,7.72
2018-02-24T18:20:47.311Z,7.70
2018-02-24T18:23:15.592Z,7.87
2018-02-24T18:25:43.877Z,7.00
2018-02-24T18:28:12.197Z,7.03
2018-02-24T18:30:40.503Z,6.53
2018-02-24T18:33:08.819Z,7.45
2018-02-24T18:35:37.073Z,7.43
2018-02-24T18:38:06.180Z,6.50
2018-02-24T18:40:34.785Z,7.00
2018-02-24T18:43:03.057Z,7.10
2018-02-24T18:45:31.542Z,7.17
2018-02-24T18:47:59.824Z,7.13
2018-02-24T18:50:28.090Z,5.60
2018-02-24T18:52:56.375Z,7.33
2018-02-24T18:55:24.677Z,7.43
2018-02-24T18:57:52.977Z,6.97
2018-02-24T19:00:21.354Z,7.45
2018-02-24T19:02:49.595Z,6.80
2018-02-24T19:05:17.928Z,6.50
2018-02-24T19:07:46.194Z,6.50
2018-02-24T19:10:14.471Z,6.22
2018-02-24T19:12:42.816Z,6.07
2018-02-24T19:15:11.070Z,6.03
2018-02-24T19:17:39.383Z,6.07
2018-02-24T19:20:07.699Z,6.73
2018-02-24T19:22:35.994Z,6.50
2018-02-24T19:25:05.316Z,6.05
2018-02-24T19:27:33.598Z,6.00
2018-02-24T19:30:02.159Z,5.50
2018-02-24T19:32:30.441Z,6.17
2018-02-24T19:34:58.745Z,5.83
2018-02-24T19:37:27.599Z,4.87
2018-02-24T19:39:55.919Z,6.20
2018-02-24T19:42:24.176Z,6.10
2018-02-24T19:44:52.506Z,5.50
2018-02-24T19:47:20.757Z,6.05
2018-02-24T19:49:49.095Z,4.57
2018-02-24T19:52:17.378Z,5.10
2018-02-24T19:54:45.677Z,4.80
2018-02-24T19:57:13.944Z,5.20
2018-02-24T19:59:42.219Z,5.40
2018-02-24T20:02:11.646Z,5.00
2018-02-24T20:04:39.915Z,5.10
2018-02-24T20:07:08.243Z,5.70
2018-02-24T20:09:36.496Z,5.10
2018-02-24T20:12:04.792Z,5.30
2018-02-24T20:14:33.040Z,5.07
2018-02-24T20:17:01.351Z,4.80
2018-02-24T20:19:29.600Z,5.90
2018-02-24T20:21:57.889Z,4.43
2018-02-24T20:24:26.175Z,4.60
2018-02-24T20:26:54.620Z,5.00
2018-02-24T20:29:22.882Z,5.10
2018-02-24T20:31:51.132Z,4.00
2018-02-24T20:34:19.455Z,4.33
2018-02-24T20:36:47.705Z,4.78
2018-02-24T20:39:16.027Z,4.47
2018-02-24T20:41:44.309Z,4.50
2018-02-24T20:44:12.576Z,4.22
2018-02-24T20:46:40.858Z,4.10
2018-02-24T20:49:09.178Z,3.53
2018-02-24T20:51:37.500Z,4.50
2018-02-24T20:54:05.760Z,4.30
2018-02-24T20:56:34.027Z,4.03
2018-02-24T20:59:03.491Z,4.20
2018-02-24T21:01:31.812Z,4.00
2018-02-24T21:04:00.068Z,4.70
2018-02-24T21:06:28.384Z,3.70
2018-02-24T21:08:56.681Z,3.83
2018-02-24T21:11:24.950Z,3.30
2018-02-24T21:13:53.225Z,3.53
2018-02-24T21:16:21.492Z,3.60
2018-02-24T21:18:49.776Z,3.65
2018-02-24T21:21:18.066Z,3.80
2018-02-24T21:23:46.333Z,3.50
2018-02-24T21:26:14.620Z,3.55
2018-02-24T21:28:42.918Z,3.43
2018-02-24T21:31:11.172Z,3.60
2018-02-24T21:33:39.442Z,3.30
2018-02-24T21:36:07.757Z,3.13
2018-02-24T21:38:36.012Z,3.47
2018-02-24T21:41:04.997Z,3.05
2018-02-24T21:43:33.275Z,3.83
2018-02-24T21:46:01.619Z,3.60
2018-02-24T21:48:29.899Z,3.07
2018-02-24T21:50:58.200Z,3.60
2018-02-24T21:53:26.476Z,2.57
2018-02-24T21:55:55.544Z,2.53
2018-02-24T21:58:24.353Z,2.77
2018-02-24T22:00:52.623Z,2.73
2018-02-24T22:03:20.908Z,3.00
2018-02-24T22:05:49.175Z,2.87
2018-02-24T22:08:17.464Z,2.75
2018-02-24T22:10:46.073Z,2.80
2018-02-24T22:13:14.335Z,2.70
2018-02-24T22:15:42.616Z,2.37
2018-02-24T22:18:10.873Z,2.60
2018-02-24T22:20:39.487Z,2.87
2018-02-24T22:23:07.729Z,2.30
2018-02-24T22:25:36.008Z,2.47
2018-02-24T22:28:04.754Z,2.28
2018-02-24T22:30:33.064Z,2.20
2018-02-24T22:33:01.385Z,2.95
2018-02-24T22:35:29.633Z,2.30
2018-02-24T22:37:57.902Z,2.70
2018-02-24T22:40:26.169Z,2.40
2018-02-24T22:42:55.084Z,2.30
2018-02-24T22:45:23.353Z,2.37
2018-02-24T22:47:57.247Z,2.70
2018-02-24T22:50:25.495Z,2.70
2018-02-24T22:52:53.783Z,4.20
2018-02-24T22:55:22.285Z,2.87
2018-02-24T22:57:50.576Z,2.33
2018-02-24T23:00:18.863Z,2.87
2018-02-24T23:02:47.127Z,2.70
2018-02-24T23:05:15.432Z,2.60
2018-02-24T23:07:43.698Z,2.73
2018-02-24T23:10:11.967Z,2.67
2018-02-24T23:12:40.232Z,2.60
2018-02-24T23:15:08.503Z,2.43
2018-02-24T23:17:36.760Z,2.67
2018-02-24T23:20:05.036Z,2.50
2018-02-24T23:22:33.283Z,3.10
2018-02-24T23:25:01.584Z,2.85
2018-02-24T23:27:29.841Z,2.90
2018-02-24T23:29:58.108Z,2.67
2018-02-24T23:32:26.399Z,2.60
2018-02-24T23:34:54.661Z,3.07
2018-02-24T23:37:22.943Z,2.47
2018-02-24T23:39:51.212Z,2.77
2018-02-24T23:42:19.505Z,3.22
2018-02-24T23:44:47.764Z,2.67
2018-02-24T23:47:16.072Z,3.03
2018-02-24T23:49:44.324Z,2.90
2018-02-24T23:52:12.639Z,2.70
2018-02-24T23:54:40.944Z,2.20
2018-02-24T23:57:09.216Z,2.55
2018-02-24T23:59:37.491Z,3.03
